Aviation Digital Data Service (ADDS)

Output produced by METARs form (0506 UTC 21 January 2019)
found at http://www.aviationweather.gov/metar/data/
 
METAR text: GQNO 210430Z 03006KT 8000 NSC 12/M07 Q1018 NOSIG
Conditions at: GQNO (NOUAKCHOTT/OUMTO, MR) observed 0430 UTC 21 January 2019
Temperature: 12.0°C (54°F)
Dewpoint: -7.0°C (19°F) [RH = 26%]
Pressure (altimeter): 30.06 inches Hg (1018.0 mb)
Winds: from the NNE (30 degrees) at 7 MPH (6 knots; 3.1 m/s)
Visibility: 5 miles ( 8 km)
Ceiling: at least 12,000 feet AGL
Clouds: sky clear below 12,000 feet AGL
Weather: no significant weather observed at this time

METAR text: GQNO 210400Z 06005KT 8000 NSC 11/M08 Q1018 NOSIG
Conditions at: GQNO (NOUAKCHOTT/OUMTO, MR) observed 0400 UTC 21 January 2019
Temperature: 11.0°C (52°F)
Dewpoint: -8.0°C (18°F) [RH = 25%]
Pressure (altimeter): 30.06 inches Hg (1018.0 mb)
Winds: from the ENE (60 degrees) at 6 MPH (5 knots; 2.6 m/s)
Visibility: 5 miles ( 8 km)
Ceiling: at least 12,000 feet AGL
Clouds: sky clear below 12,000 feet AGL
Weather: no significant weather observed at this time

METAR text: GQNO 210330Z 04007KT 8000 NSC 13/M07 Q1018 NOSIG
Conditions at: GQNO (NOUAKCHOTT/OUMTO, MR) observed 0330 UTC 21 January 2019
Temperature: 13.0°C (55°F)
Dewpoint: -7.0°C (19°F) [RH = 24%]
Pressure (altimeter): 30.06 inches Hg (1018.0 mb)
Winds: from the NE (40 degrees) at 8 MPH (7 knots; 3.6 m/s)
Visibility: 5 miles ( 8 km)
Ceiling: at least 12,000 feet AGL
Clouds: sky clear below 12,000 feet AGL
Weather: no significant weather observed at this time

METAR text: GQNO 210300Z 03009KT 8000 NSC 15/M07 Q1019 NOSIG
Conditions at: GQNO (NOUAKCHOTT/OUMTO, MR) observed 0300 UTC 21 January 2019
Temperature: 15.0°C (59°F)
Dewpoint: -7.0°C (19°F) [RH = 21%]
Pressure (altimeter): 30.09 inches Hg (1019.0 mb)
Winds: from the NNE (30 degrees) at 10 MPH (9 knots; 4.6 m/s)
Visibility: 5 miles ( 8 km)
Ceiling: at least 12,000 feet AGL
Clouds: sky clear below 12,000 feet AGL
Weather: no significant weather observed at this time

METAR text: GQNO 210230Z 04008KT 8000 NSC 15/M07 Q1019 NOSIG
Conditions at: GQNO (NOUAKCHOTT/OUMTO, MR) observed 0230 UTC 21 January 2019
Temperature: 15.0°C (59°F)
Dewpoint: -7.0°C (19°F) [RH = 21%]
Pressure (altimeter): 30.09 inches Hg (1019.0 mb)
Winds: from the NE (40 degrees) at 9 MPH (8 knots; 4.1 m/s)
Visibility: 5 miles ( 8 km)
Ceiling: at least 12,000 feet AGL
Clouds: sky clear below 12,000 feet AGL
Weather: no significant weather observed at this time

METAR text: GQNO 210200Z 04008KT 8000 NSC 15/M07 Q1019 NOSIG
Conditions at: GQNO (NOUAKCHOTT/OUMTO, MR) observed 0200 UTC 21 January 2019
Temperature: 15.0°C (59°F)
Dewpoint: -7.0°C (19°F) [RH = 21%]
Pressure (altimeter): 30.09 inches Hg (1019.0 mb)
Winds: from the NE (40 degrees) at 9 MPH (8 knots; 4.1 m/s)
Visibility: 5 miles ( 8 km)
Ceiling: at least 12,000 feet AGL
Clouds: sky clear below 12,000 feet AGL
Weather: no significant weather observed at this time

METAR text: GQNO 210130Z 03009KT 8000 NSC 16/M07 Q1019 NOSIG
Conditions at: GQNO (NOUAKCHOTT/OUMTO, MR) observed 0130 UTC 21 January 2019
Temperature: 16.0°C (61°F)
Dewpoint: -7.0°C (19°F) [RH = 20%]
Pressure (altimeter): 30.09 inches Hg (1019.0 mb)
Winds: from the NNE (30 degrees) at 10 MPH (9 knots; 4.6 m/s)
Visibility: 5 miles ( 8 km)
Ceiling: at least 12,000 feet AGL
Clouds: sky clear below 12,000 feet AGL
Weather: no significant weather observed at this time

METAR text: GQNO 210100Z 03010KT 8000 NSC 16/M08 Q1019 NOSIG
Conditions at: GQNO (NOUAKCHOTT/OUMTO, MR) observed 0100 UTC 21 January 2019
Temperature: 16.0°C (61°F)
Dewpoint: -8.0°C (18°F) [RH = 18%]
Pressure (altimeter): 30.09 inches Hg (1019.0 mb)
Winds: from the NNE (30 degrees) at 12 MPH (10 knots; 5.1 m/s)
Visibility: 5 miles ( 8 km)
Ceiling: at least 12,000 feet AGL
Clouds: sky clear below 12,000 feet AGL
Weather: no significant weather observed at this time

METAR text: GQNO 210030Z 03011KT 8000 NSC 17/M09 Q1019 NOSIG
Conditions at: GQNO (NOUAKCHOTT/OUMTO, MR) observed 0030 UTC 21 January 2019
Temperature: 17.0°C (63°F)
Dewpoint: -9.0°C (16°F) [RH = 16%]
Pressure (altimeter): 30.09 inches Hg (1019.0 mb)
Winds: from the NNE (30 degrees) at 13 MPH (11 knots; 5.7 m/s)
Visibility: 5 miles ( 8 km)
Ceiling: at least 12,000 feet AGL
Clouds: sky clear below 12,000 feet AGL
Weather: no significant weather observed at this time

METAR text: GQNO 210000Z 02010KT 8000 NSC 15/M09 Q1020 NOSIG
Conditions at: GQNO (NOUAKCHOTT/OUMTO, MR) observed 0000 UTC 21 January 2019
Temperature: 15.0°C (59°F)
Dewpoint: -9.0°C (16°F) [RH = 18%]
Pressure (altimeter): 30.12 inches Hg (1020.0 mb)
Winds: from the NNE (20 degrees) at 12 MPH (10 knots; 5.1 m/s)
Visibility: 5 miles ( 8 km)
Ceiling: at least 12,000 feet AGL
Clouds: sky clear below 12,000 feet AGL
Weather: no significant weather observed at this time

METAR text: GQNO 202330Z 06006KT 8000 NSC 14/M10 Q1019 NOSIG
Conditions at: GQNO (NOUAKCHOTT/OUMTO, MR) observed 2330 UTC 20 January 2019
Temperature: 14.0°C (57°F)
Dewpoint: -10.0°C (14°F) [RH = 18%]
Pressure (altimeter): 30.09 inches Hg (1019.0 mb)
Winds: from the ENE (60 degrees) at 7 MPH (6 knots; 3.1 m/s)
Visibility: 5 miles ( 8 km)
Ceiling: at least 12,000 feet AGL
Clouds: sky clear below 12,000 feet AGL
Weather: no significant weather observed at this time

METAR text: GQNO 202300Z 07005KT 8000 NSC 15/M10 Q1019 NOSIG
Conditions at: GQNO (NOUAKCHOTT/OUMTO, MR) observed 2300 UTC 20 January 2019
Temperature: 15.0°C (59°F)
Dewpoint: -10.0°C (14°F) [RH = 17%]
Pressure (altimeter): 30.09 inches Hg (1019.0 mb)
Winds: from the ENE (70 degrees) at 6 MPH (5 knots; 2.6 m/s)
Visibility: 5 miles ( 8 km)
Ceiling: at least 12,000 feet AGL
Clouds: sky clear below 12,000 feet AGL
Weather: no significant weather observed at this time

METAR text: GQNO 202230Z 07006KT 8000 NSC 16/M09 Q1019 NOSIG
Conditions at: GQNO (NOUAKCHOTT/OUMTO, MR) observed 2230 UTC 20 January 2019
Temperature: 16.0°C (61°F)
Dewpoint: -9.0°C (16°F) [RH = 17%]
Pressure (altimeter): 30.09 inches Hg (1019.0 mb)
Winds: from the ENE (70 degrees) at 7 MPH (6 knots; 3.1 m/s)
Visibility: 5 miles ( 8 km)
Ceiling: at least 12,000 feet AGL
Clouds: sky clear below 12,000 feet AGL
Weather: no significant weather observed at this time

METAR text: GQNO 202200Z 05008KT 8000 NSC 16/M10 Q1019 NOSIG
Conditions at: GQNO (NOUAKCHOTT/OUMTO, MR) observed 2200 UTC 20 January 2019
Temperature: 16.0°C (61°F)
Dewpoint: -10.0°C (14°F) [RH = 16%]
Pressure (altimeter): 30.09 inches Hg (1019.0 mb)
Winds: from the NE (50 degrees) at 9 MPH (8 knots; 4.1 m/s)
Visibility: 5 miles ( 8 km)
Ceiling: at least 12,000 feet AGL
Clouds: sky clear below 12,000 feet AGL
Weather: no significant weather observed at this time

METAR text: GQNO 202130Z 05009KT 8000 NSC 17/M10 Q1019 NOSIG
Conditions at: GQNO (NOUAKCHOTT/OUMTO, MR) observed 2130 UTC 20 January 2019
Temperature: 17.0°C (63°F)
Dewpoint: -10.0°C (14°F) [RH = 15%]
Pressure (altimeter): 30.09 inches Hg (1019.0 mb)
Winds: from the NE (50 degrees) at 10 MPH (9 knots; 4.6 m/s)
Visibility: 5 miles ( 8 km)
Ceiling: at least 12,000 feet AGL
Clouds: sky clear below 12,000 feet AGL
Weather: no significant weather observed at this time

METAR text: GQNO 202100Z 04008KT 8000 NSC 18/M09 Q1018 NOSIG
Conditions at: GQNO (NOUAKCHOTT/OUMTO, MR) observed 2100 UTC 20 January 2019
Temperature: 18.0°C (64°F)
Dewpoint: -9.0°C (16°F) [RH = 15%]
Pressure (altimeter): 30.06 inches Hg (1018.0 mb)
Winds: from the NE (40 degrees) at 9 MPH (8 knots; 4.1 m/s)
Visibility: 5 miles ( 8 km)
Ceiling: at least 12,000 feet AGL
Clouds: sky clear below 12,000 feet AGL
Weather: no significant weather observed at this time

METAR text: GQNO 202030Z 04008KT 8000 NSC 19/M08 Q1018 NOSIG
Conditions at: GQNO (NOUAKCHOTT/OUMTO, MR) observed 2030 UTC 20 January 2019
Temperature: 19.0°C (66°F)
Dewpoint: -8.0°C (18°F) [RH = 15%]
Pressure (altimeter): 30.06 inches Hg (1018.0 mb)
Winds: from the NE (40 degrees) at 9 MPH (8 knots; 4.1 m/s)
Visibility: 5 miles ( 8 km)
Ceiling: at least 12,000 feet AGL
Clouds: sky clear below 12,000 feet AGL
Weather: no significant weather observed at this time

METAR text: GQNO 202000Z 04008KT 8000 NSC 20/M08 Q1018 NOSIG
Conditions at: GQNO (NOUAKCHOTT/OUMTO, MR) observed 2000 UTC 20 January 2019
Temperature: 20.0°C (68°F)
Dewpoint: -8.0°C (18°F) [RH = 14%]
Pressure (altimeter): 30.06 inches Hg (1018.0 mb)
Winds: from the NE (40 degrees) at 9 MPH (8 knots; 4.1 m/s)
Visibility: 5 miles ( 8 km)
Ceiling: at least 12,000 feet AGL
Clouds: sky clear below 12,000 feet AGL
Weather: no significant weather observed at this time

METAR text: GQNO 201930Z 04006KT 8000 NSC 22/M08 Q1018 NOSIG
Conditions at: GQNO (NOUAKCHOTT/OUMTO, MR) observed 1930 UTC 20 January 2019
Temperature: 22.0°C (72°F)
Dewpoint: -8.0°C (18°F) [RH = 13%]
Pressure (altimeter): 30.06 inches Hg (1018.0 mb)
Winds: from the NE (40 degrees) at 7 MPH (6 knots; 3.1 m/s)
Visibility: 5 miles ( 8 km)
Ceiling: at least 12,000 feet AGL
Clouds: sky clear below 12,000 feet AGL
Weather: no significant weather observed at this time

METAR text: GQNO 201900Z 04008KT 8000 NSC 23/M08 Q1017 NOSIG
Conditions at: GQNO (NOUAKCHOTT/OUMTO, MR) observed 1900 UTC 20 January 2019
Temperature: 23.0°C (73°F)
Dewpoint: -8.0°C (18°F) [RH = 12%]
Pressure (altimeter): 30.03 inches Hg (1017.0 mb)
Winds: from the NE (40 degrees) at 9 MPH (8 knots; 4.1 m/s)
Visibility: 5 miles ( 8 km)
Ceiling: at least 12,000 feet AGL
Clouds: sky clear below 12,000 feet AGL
Weather: no significant weather observed at this time

METAR text: GQNO 201830Z 06010KT 8000 NSC 25/M07 Q1017 NOSIG
Conditions at: GQNO (NOUAKCHOTT/OUMTO, MR) observed 1830 UTC 20 January 2019
Temperature: 25.0°C (77°F)
Dewpoint: -7.0°C (19°F) [RH = 11%]
Pressure (altimeter): 30.03 inches Hg (1017.0 mb)
Winds: from the ENE (60 degrees) at 12 MPH (10 knots; 5.1 m/s)
Visibility: 5 miles ( 8 km)
Ceiling: at least 12,000 feet AGL
Clouds: sky clear below 12,000 feet AGL
Weather: no significant weather observed at this time

METAR text: GQNO 201800Z 06012KT 8000 NSC 26/M06 Q1017 NOSIG
Conditions at: GQNO (NOUAKCHOTT/OUMTO, MR) observed 1800 UTC 20 January 2019
Temperature: 26.0°C (79°F)
Dewpoint: -6.0°C (21°F) [RH = 12%]
Pressure (altimeter): 30.03 inches Hg (1017.0 mb)
Winds: from the ENE (60 degrees) at 14 MPH (12 knots; 6.2 m/s)
Visibility: 5 miles ( 8 km)
Ceiling: at least 12,000 feet AGL
Clouds: sky clear below 12,000 feet AGL
Weather: no significant weather observed at this time

METAR text: GQNO 201730Z 07012KT 8000 NSC 27/M06 Q1017 NOSIG
Conditions at: GQNO (NOUAKCHOTT/OUMTO, MR) observed 1730 UTC 20 January 2019
Temperature: 27.0°C (81°F)
Dewpoint: -6.0°C (21°F) [RH = 11%]
Pressure (altimeter): 30.03 inches Hg (1017.0 mb)
Winds: from the ENE (70 degrees) at 14 MPH (12 knots; 6.2 m/s)
Visibility: 5 miles ( 8 km)
Ceiling: at least 12,000 feet AGL
Clouds: sky clear below 12,000 feet AGL
Weather: no significant weather observed at this time

METAR text: GQNO 201700Z 06013KT 8000 NSC 27/M06 Q1017 NOSIG
Conditions at: GQNO (NOUAKCHOTT/OUMTO, MR) observed 1700 UTC 20 January 2019
Temperature: 27.0°C (81°F)
Dewpoint: -6.0°C (21°F) [RH = 11%]
Pressure (altimeter): 30.03 inches Hg (1017.0 mb)
Winds: from the ENE (60 degrees) at 15 MPH (13 knots; 6.7 m/s)
Visibility: 5 miles ( 8 km)
Ceiling: at least 12,000 feet AGL
Clouds: sky clear below 12,000 feet AGL
Weather: no significant weather observed at this time

METAR text: GQNO 201630Z 07013KT 040V100 8000 NSC 27/M06 Q1017 NOSIG
Conditions at: GQNO (NOUAKCHOTT/OUMTO, MR) observed 1630 UTC 20 January 2019
Temperature: 27.0°C (81°F)
Dewpoint: -6.0°C (21°F) [RH = 11%]
Pressure (altimeter): 30.03 inches Hg (1017.0 mb)
Winds: from the ENE (70 degrees) at 15 MPH (13 knots; 6.7 m/s)
Visibility: 5 miles ( 8 km)
Ceiling: at least 12,000 feet AGL
Clouds: sky clear below 12,000 feet AGL
Weather: no significant weather observed at this time

METAR text: GQNO 201600Z 08012KT 8000 NSC 27/M06 Q1017 NOSIG
Conditions at: GQNO (NOUAKCHOTT/OUMTO, MR) observed 1600 UTC 20 January 2019
Temperature: 27.0°C (81°F)
Dewpoint: -6.0°C (21°F) [RH = 11%]
Pressure (altimeter): 30.03 inches Hg (1017.0 mb)
Winds: from the E (80 degrees) at 14 MPH (12 knots; 6.2 m/s)
Visibility: 5 miles ( 8 km)
Ceiling: at least 12,000 feet AGL
Clouds: sky clear below 12,000 feet AGL
Weather: no significant weather observed at this time

METAR text: GQNO 201530Z 08012KT 8000 NSC 27/M05 Q1017 NOSIG
Conditions at: GQNO (NOUAKCHOTT/OUMTO, MR) observed 1530 UTC 20 January 2019
Temperature: 27.0°C (81°F)
Dewpoint: -5.0°C (23°F) [RH = 12%]
Pressure (altimeter): 30.03 inches Hg (1017.0 mb)
Winds: from the E (80 degrees) at 14 MPH (12 knots; 6.2 m/s)
Visibility: 5 miles ( 8 km)
Ceiling: at least 12,000 feet AGL
Clouds: sky clear below 12,000 feet AGL
Weather: no significant weather observed at this time

METAR text: GQNO 201500Z 07013KT 8000 NSC 27/M05 Q1017 NOSIG
Conditions at: GQNO (NOUAKCHOTT/OUMTO, MR) observed 1500 UTC 20 January 2019
Temperature: 27.0°C (81°F)
Dewpoint: -5.0°C (23°F) [RH = 12%]
Pressure (altimeter): 30.03 inches Hg (1017.0 mb)
Winds: from the ENE (70 degrees) at 15 MPH (13 knots; 6.7 m/s)
Visibility: 5 miles ( 8 km)
Ceiling: at least 12,000 feet AGL
Clouds: sky clear below 12,000 feet AGL
Weather: no significant weather observed at this time

METAR text: GQNO 201430Z 08013KT 8000 NSC 26/M05 Q1018 NOSIG
Conditions at: GQNO (NOUAKCHOTT/OUMTO, MR) observed 1430 UTC 20 January 2019
Temperature: 26.0°C (79°F)
Dewpoint: -5.0°C (23°F) [RH = 13%]
Pressure (altimeter): 30.06 inches Hg (1018.0 mb)
Winds: from the E (80 degrees) at 15 MPH (13 knots; 6.7 m/s)
Visibility: 5 miles ( 8 km)
Ceiling: at least 12,000 feet AGL
Clouds: sky clear below 12,000 feet AGL
Weather: no significant weather observed at this time

METAR text: GQNO 201400Z 08014KT 8000 NSC 26/M06 Q1019 NOSIG
Conditions at: GQNO (NOUAKCHOTT/OUMTO, MR) observed 1400 UTC 20 January 2019
Temperature: 26.0°C (79°F)
Dewpoint: -6.0°C (21°F) [RH = 12%]
Pressure (altimeter): 30.09 inches Hg (1019.0 mb)
Winds: from the E (80 degrees) at 16 MPH (14 knots; 7.2 m/s)
Visibility: 5 miles ( 8 km)
Ceiling: at least 12,000 feet AGL
Clouds: sky clear below 12,000 feet AGL
Weather: no significant weather observed at this time

METAR text: GQNO 201330Z 09014KT 8000 NSC 25/M06 Q1019 NOSIG
Conditions at: GQNO (NOUAKCHOTT/OUMTO, MR) observed 1330 UTC 20 January 2019
Temperature: 25.0°C (77°F)
Dewpoint: -6.0°C (21°F) [RH = 12%]
Pressure (altimeter): 30.09 inches Hg (1019.0 mb)
Winds: from the E (90 degrees) at 16 MPH (14 knots; 7.2 m/s)
Visibility: 5 miles ( 8 km)
Ceiling: at least 12,000 feet AGL
Clouds: sky clear below 12,000 feet AGL
Weather: no significant weather observed at this time

METAR text: GQNO 201300Z 09014KT 8000 NSC 25/M05 Q1020 NOSIG
Conditions at: GQNO (NOUAKCHOTT/OUMTO, MR) observed 1300 UTC 20 January 2019
Temperature: 25.0°C (77°F)
Dewpoint: -5.0°C (23°F) [RH = 13%]
Pressure (altimeter): 30.12 inches Hg (1020.0 mb)
Winds: from the E (90 degrees) at 16 MPH (14 knots; 7.2 m/s)
Visibility: 5 miles ( 8 km)
Ceiling: at least 12,000 feet AGL
Clouds: sky clear below 12,000 feet AGL
Weather: no significant weather observed at this time

METAR text: GQNO 201230Z 09014KT 8000 NSC 24/M06 Q1020 NOSIG
Conditions at: GQNO (NOUAKCHOTT/OUMTO, MR) observed 1230 UTC 20 January 2019
Temperature: 24.0°C (75°F)
Dewpoint: -6.0°C (21°F) [RH = 13%]
Pressure (altimeter): 30.12 inches Hg (1020.0 mb)
Winds: from the E (90 degrees) at 16 MPH (14 knots; 7.2 m/s)
Visibility: 5 miles ( 8 km)
Ceiling: at least 12,000 feet AGL
Clouds: sky clear below 12,000 feet AGL
Weather: no significant weather observed at this time

METAR text: GQNO 201200Z 09014KT 8000 NSC 23/M06 Q1021 NOSIG
Conditions at: GQNO (NOUAKCHOTT/OUMTO, MR) observed 1200 UTC 20 January 2019
Temperature: 23.0°C (73°F)
Dewpoint: -6.0°C (21°F) [RH = 14%]
Pressure (altimeter): 30.15 inches Hg (1021.0 mb)
Winds: from the E (90 degrees) at 16 MPH (14 knots; 7.2 m/s)
Visibility: 5 miles ( 8 km)
Ceiling: at least 12,000 feet AGL
Clouds: sky clear below 12,000 feet AGL
Weather: no significant weather observed at this time

METAR text: GQNO 201130Z 09013KT 8000 NSC 22/M05 Q1021 NOSIG
Conditions at: GQNO (NOUAKCHOTT/OUMTO, MR) observed 1130 UTC 20 January 2019
Temperature: 22.0°C (72°F)
Dewpoint: -5.0°C (23°F) [RH = 16%]
Pressure (altimeter): 30.15 inches Hg (1021.0 mb)
Winds: from the E (90 degrees) at 15 MPH (13 knots; 6.7 m/s)
Visibility: 5 miles ( 8 km)
Ceiling: at least 12,000 feet AGL
Clouds: sky clear below 12,000 feet AGL
Weather: no significant weather observed at this time

METAR text: GQNO 201100Z 09013KT 8000 NSC 20/M05 Q1021 NOSIG
Conditions at: GQNO (NOUAKCHOTT/OUMTO, MR) observed 1100 UTC 20 January 2019
Temperature: 20.0°C (68°F)
Dewpoint: -5.0°C (23°F) [RH = 18%]
Pressure (altimeter): 30.15 inches Hg (1021.0 mb)
Winds: from the E (90 degrees) at 15 MPH (13 knots; 6.7 m/s)
Visibility: 5 miles ( 8 km)
Ceiling: at least 12,000 feet AGL
Clouds: sky clear below 12,000 feet AGL
Weather: no significant weather observed at this time

METAR text: GQNO 201030Z 07013KT 8000 NSC 18/M04 Q1021 NOSIG
Conditions at: GQNO (NOUAKCHOTT/OUMTO, MR) observed 1030 UTC 20 January 2019
Temperature: 18.0°C (64°F)
Dewpoint: -4.0°C (25°F) [RH = 22%]
Pressure (altimeter): 30.15 inches Hg (1021.0 mb)
Winds: from the ENE (70 degrees) at 15 MPH (13 knots; 6.7 m/s)
Visibility: 5 miles ( 8 km)
Ceiling: at least 12,000 feet AGL
Clouds: sky clear below 12,000 feet AGL
Weather: no significant weather observed at this time

METAR text: GQNO 201000Z 07011KT 8000 NSC 16/M04 Q1021 NOSIG
Conditions at: GQNO (NOUAKCHOTT/OUMTO, MR) observed 1000 UTC 20 January 2019
Temperature: 16.0°C (61°F)
Dewpoint: -4.0°C (25°F) [RH = 25%]
Pressure (altimeter): 30.15 inches Hg (1021.0 mb)
Winds: from the ENE (70 degrees) at 13 MPH (11 knots; 5.7 m/s)
Visibility: 5 miles ( 8 km)
Ceiling: at least 12,000 feet AGL
Clouds: sky clear below 12,000 feet AGL
Weather: no significant weather observed at this time

METAR text: GQNO 200930Z 06008KT 8000 NSC 13/M03 Q1020 NOSIG
Conditions at: GQNO (NOUAKCHOTT/OUMTO, MR) observed 0930 UTC 20 January 2019
Temperature: 13.0°C (55°F)
Dewpoint: -3.0°C (27°F) [RH = 33%]
Pressure (altimeter): 30.12 inches Hg (1020.0 mb)
Winds: from the ENE (60 degrees) at 9 MPH (8 knots; 4.1 m/s)
Visibility: 5 miles ( 8 km)
Ceiling: at least 12,000 feet AGL
Clouds: sky clear below 12,000 feet AGL
Weather: no significant weather observed at this time

METAR text: GQNO 200900Z 06006KT 8000 NSC 10/M03 Q1020 NOSIG
Conditions at: GQNO (NOUAKCHOTT/OUMTO, MR) observed 0900 UTC 20 January 2019
Temperature: 10.0°C (50°F)
Dewpoint: -3.0°C (27°F) [RH = 40%]
Pressure (altimeter): 30.12 inches Hg (1020.0 mb)
Winds: from the ENE (60 degrees) at 7 MPH (6 knots; 3.1 m/s)
Visibility: 5 miles ( 8 km)
Ceiling: at least 12,000 feet AGL
Clouds: sky clear below 12,000 feet AGL
Weather: no significant weather observed at this time

METAR text: GQNO 200830Z 05007KT 8000 NSC 08/M03 Q1020 NOSIG
Conditions at: GQNO (NOUAKCHOTT/OUMTO, MR) observed 0830 UTC 20 January 2019
Temperature: 8.0°C (46°F)
Dewpoint: -3.0°C (27°F) [RH = 46%]
Pressure (altimeter): 30.12 inches Hg (1020.0 mb)
Winds: from the NE (50 degrees) at 8 MPH (7 knots; 3.6 m/s)
Visibility: 5 miles ( 8 km)
Ceiling: at least 12,000 feet AGL
Clouds: sky clear below 12,000 feet AGL
Weather: no significant weather observed at this time

METAR text: GQNO 200800Z 05006KT CAVOK 08/M03 Q1020 NOSIG
Conditions at: GQNO (NOUAKCHOTT/OUMTO, MR) observed 0800 UTC 20 January 2019
Temperature: 8.0°C (46°F)
Dewpoint: -3.0°C (27°F) [RH = 46%]
Pressure (altimeter): 30.12 inches Hg (1020.0 mb)
Winds: from the NE (50 degrees) at 7 MPH (6 knots; 3.1 m/s)
Visibility: 6 or more miles (10+ km)
Ceiling: ceiling and visibility are OK
Clouds: unknown
Weather: no significant weather observed at this time

METAR text: GQNO 200730Z 05006KT CAVOK 09/M03 Q1019 NOSIG
Conditions at: GQNO (NOUAKCHOTT/OUMTO, MR) observed 0730 UTC 20 January 2019
Temperature: 9.0°C (48°F)
Dewpoint: -3.0°C (27°F) [RH = 43%]
Pressure (altimeter): 30.09 inches Hg (1019.0 mb)
Winds: from the NE (50 degrees) at 7 MPH (6 knots; 3.1 m/s)
Visibility: 6 or more miles (10+ km)
Ceiling: ceiling and visibility are OK
Clouds: unknown
Weather: no significant weather observed at this time

METAR text: GQNO 200700Z 03007KT CAVOK 10/M03 Q1019 NOSIG
Conditions at: GQNO (NOUAKCHOTT/OUMTO, MR) observed 0700 UTC 20 January 2019
Temperature: 10.0°C (50°F)
Dewpoint: -3.0°C (27°F) [RH = 40%]
Pressure (altimeter): 30.09 inches Hg (1019.0 mb)
Winds: from the NNE (30 degrees) at 8 MPH (7 knots; 3.6 m/s)
Visibility: 6 or more miles (10+ km)
Ceiling: ceiling and visibility are OK
Clouds: unknown
Weather: no significant weather observed at this time

METAR text: GQNO 200630Z 03007KT CAVOK 10/M02 Q1019 NOSIG
Conditions at: GQNO (NOUAKCHOTT/OUMTO, MR) observed 0630 UTC 20 January 2019
Temperature: 10.0°C (50°F)
Dewpoint: -2.0°C (28°F) [RH = 43%]
Pressure (altimeter): 30.09 inches Hg (1019.0 mb)
Winds: from the NNE (30 degrees) at 8 MPH (7 knots; 3.6 m/s)
Visibility: 6 or more miles (10+ km)
Ceiling: ceiling and visibility are OK
Clouds: unknown
Weather: no significant weather observed at this time

METAR text: GQNO 200600Z 03008KT CAVOK 11/M02 Q1019 NOSIG
Conditions at: GQNO (NOUAKCHOTT/OUMTO, MR) observed 0600 UTC 20 January 2019
Temperature: 11.0°C (52°F)
Dewpoint: -2.0°C (28°F) [RH = 40%]
Pressure (altimeter): 30.09 inches Hg (1019.0 mb)
Winds: from the NNE (30 degrees) at 9 MPH (8 knots; 4.1 m/s)
Visibility: 6 or more miles (10+ km)
Ceiling: ceiling and visibility are OK
Clouds: unknown
Weather: no significant weather observed at this time

METAR text: GQNO 200530Z 04007KT CAVOK 11/M02 Q1019 NOSIG
Conditions at: GQNO (NOUAKCHOTT/OUMTO, MR) observed 0530 UTC 20 January 2019
Temperature: 11.0°C (52°F)
Dewpoint: -2.0°C (28°F) [RH = 40%]
Pressure (altimeter): 30.09 inches Hg (1019.0 mb)
Winds: from the NE (40 degrees) at 8 MPH (7 knots; 3.6 m/s)
Visibility: 6 or more miles (10+ km)
Ceiling: ceiling and visibility are OK
Clouds: unknown
Weather: no significant weather observed at this time

METAR text: GQNO 200500Z 03007KT CAVOK 11/M01 Q1019 NOSIG
Conditions at: GQNO (NOUAKCHOTT/OUMTO, MR) observed 0500 UTC 20 January 2019
Temperature: 11.0°C (52°F)
Dewpoint: -1.0°C (30°F) [RH = 43%]
Pressure (altimeter): 30.09 inches Hg (1019.0 mb)
Winds: from the NNE (30 degrees) at 8 MPH (7 knots; 3.6 m/s)
Visibility: 6 or more miles (10+ km)
Ceiling: ceiling and visibility are OK
Clouds: unknown
Weather: no significant weather observed at this time

METAR text: GQNO 200430Z 03008KT CAVOK 11/M02 Q1019 NOSIG
Conditions at: GQNO (NOUAKCHOTT/OUMTO, MR) observed 0430 UTC 20 January 2019
Temperature: 11.0°C (52°F)
Dewpoint: -2.0°C (28°F) [RH = 40%]
Pressure (altimeter): 30.09 inches Hg (1019.0 mb)
Winds: from the NNE (30 degrees) at 9 MPH (8 knots; 4.1 m/s)
Visibility: 6 or more miles (10+ km)
Ceiling: ceiling and visibility are OK
Clouds: unknown
Weather: no significant weather observed at this time

METAR text: GQNO 200400Z 03008KT CAVOK 12/M01 Q1019 NOSIG
Conditions at: GQNO (NOUAKCHOTT/OUMTO, MR) observed 0400 UTC 20 January 2019
Temperature: 12.0°C (54°F)
Dewpoint: -1.0°C (30°F) [RH = 40%]
Pressure (altimeter): 30.09 inches Hg (1019.0 mb)
Winds: from the NNE (30 degrees) at 9 MPH (8 knots; 4.1 m/s)
Visibility: 6 or more miles (10+ km)
Ceiling: ceiling and visibility are OK
Clouds: unknown
Weather: no significant weather observed at this time

METAR text: GQNO 200330Z 04007KT CAVOK 13/M01 Q1019 NOSIG
Conditions at: GQNO (NOUAKCHOTT/OUMTO, MR) observed 0330 UTC 20 January 2019
Temperature: 13.0°C (55°F)
Dewpoint: -1.0°C (30°F) [RH = 38%]
Pressure (altimeter): 30.09 inches Hg (1019.0 mb)
Winds: from the NE (40 degrees) at 8 MPH (7 knots; 3.6 m/s)
Visibility: 6 or more miles (10+ km)
Ceiling: ceiling and visibility are OK
Clouds: unknown
Weather: no significant weather observed at this time

METAR text: GQNO 200300Z 03008KT CAVOK 13/M01 Q1019 NOSIG
Conditions at: GQNO (NOUAKCHOTT/OUMTO, MR) observed 0300 UTC 20 January 2019
Temperature: 13.0°C (55°F)
Dewpoint: -1.0°C (30°F) [RH = 38%]
Pressure (altimeter): 30.09 inches Hg (1019.0 mb)
Winds: from the NNE (30 degrees) at 9 MPH (8 knots; 4.1 m/s)
Visibility: 6 or more miles (10+ km)
Ceiling: ceiling and visibility are OK
Clouds: unknown
Weather: no significant weather observed at this time

METAR text: GQNO 200230Z 03008KT CAVOK 14/M01 Q1019 NOSIG
Conditions at: GQNO (NOUAKCHOTT/OUMTO, MR) observed 0230 UTC 20 January 2019
Temperature: 14.0°C (57°F)
Dewpoint: -1.0°C (30°F) [RH = 36%]
Pressure (altimeter): 30.09 inches Hg (1019.0 mb)
Winds: from the NNE (30 degrees) at 9 MPH (8 knots; 4.1 m/s)
Visibility: 6 or more miles (10+ km)
Ceiling: ceiling and visibility are OK
Clouds: unknown
Weather: no significant weather observed at this time

METAR text: GQNO 200200Z 03008KT CAVOK 13/M01 Q1019 NOSIG
Conditions at: GQNO (NOUAKCHOTT/OUMTO, MR) observed 0200 UTC 20 January 2019
Temperature: 13.0°C (55°F)
Dewpoint: -1.0°C (30°F) [RH = 38%]
Pressure (altimeter): 30.09 inches Hg (1019.0 mb)
Winds: from the NNE (30 degrees) at 9 MPH (8 knots; 4.1 m/s)
Visibility: 6 or more miles (10+ km)
Ceiling: ceiling and visibility are OK
Clouds: unknown
Weather: no significant weather observed at this time

METAR text: GQNO 200130Z 04006KT CAVOK 12/M02 Q1020 NOSIG
Conditions at: GQNO (NOUAKCHOTT/OUMTO, MR) observed 0130 UTC 20 January 2019
Temperature: 12.0°C (54°F)
Dewpoint: -2.0°C (28°F) [RH = 38%]
Pressure (altimeter): 30.12 inches Hg (1020.0 mb)
Winds: from the NE (40 degrees) at 7 MPH (6 knots; 3.1 m/s)
Visibility: 6 or more miles (10+ km)
Ceiling: ceiling and visibility are OK
Clouds: unknown
Weather: no significant weather observed at this time

METAR text: GQNO 200100Z 04005KT CAVOK 13/M02 Q1020 NOSIG
Conditions at: GQNO (NOUAKCHOTT/OUMTO, MR) observed 0100 UTC 20 January 2019
Temperature: 13.0°C (55°F)
Dewpoint: -2.0°C (28°F) [RH = 35%]
Pressure (altimeter): 30.12 inches Hg (1020.0 mb)
Winds: from the NE (40 degrees) at 6 MPH (5 knots; 2.6 m/s)
Visibility: 6 or more miles (10+ km)
Ceiling: ceiling and visibility are OK
Clouds: unknown
Weather: no significant weather observed at this time

METAR text: GQNO 200030Z 04006KT CAVOK 14/M02 Q1020 NOSIG
Conditions at: GQNO (NOUAKCHOTT/OUMTO, MR) observed 0030 UTC 20 January 2019
Temperature: 14.0°C (57°F)
Dewpoint: -2.0°C (28°F) [RH = 33%]
Pressure (altimeter): 30.12 inches Hg (1020.0 mb)
Winds: from the NE (40 degrees) at 7 MPH (6 knots; 3.1 m/s)
Visibility: 6 or more miles (10+ km)
Ceiling: ceiling and visibility are OK
Clouds: unknown
Weather: no significant weather observed at this time

METAR text: GQNO 200000Z 04007KT CAVOK 15/M02 Q1020 NOSIG
Conditions at: GQNO (NOUAKCHOTT/OUMTO, MR) observed 0000 UTC 20 January 2019
Temperature: 15.0°C (59°F)
Dewpoint: -2.0°C (28°F) [RH = 31%]
Pressure (altimeter): 30.12 inches Hg (1020.0 mb)
Winds: from the NE (40 degrees) at 8 MPH (7 knots; 3.6 m/s)
Visibility: 6 or more miles (10+ km)
Ceiling: ceiling and visibility are OK
Clouds: unknown
Weather: no significant weather observed at this time

METAR text: GQNO 192330Z 03008KT CAVOK 16/M01 Q1019 NOSIG
Conditions at: GQNO (NOUAKCHOTT/OUMTO, MR) observed 2330 UTC 19 January 2019
Temperature: 16.0°C (61°F)
Dewpoint: -1.0°C (30°F) [RH = 31%]
Pressure (altimeter): 30.09 inches Hg (1019.0 mb)
Winds: from the NNE (30 degrees) at 9 MPH (8 knots; 4.1 m/s)
Visibility: 6 or more miles (10+ km)
Ceiling: ceiling and visibility are OK
Clouds: unknown
Weather: no significant weather observed at this time

METAR text: GQNO 192300Z 02008KT 8000 NSC 17/M01 Q1020 NOSIG
Conditions at: GQNO (NOUAKCHOTT/OUMTO, MR) observed 2300 UTC 19 January 2019
Temperature: 17.0°C (63°F)
Dewpoint: -1.0°C (30°F) [RH = 29%]
Pressure (altimeter): 30.12 inches Hg (1020.0 mb)
Winds: from the NNE (20 degrees) at 9 MPH (8 knots; 4.1 m/s)
Visibility: 5 miles ( 8 km)
Ceiling: at least 12,000 feet AGL
Clouds: sky clear below 12,000 feet AGL
Weather: no significant weather observed at this time

METAR text: GQNO 192230Z 02010KT 8000 NSC 17/M01 Q1019 NOSIG
Conditions at: GQNO (NOUAKCHOTT/OUMTO, MR) observed 2230 UTC 19 January 2019
Temperature: 17.0°C (63°F)
Dewpoint: -1.0°C (30°F) [RH = 29%]
Pressure (altimeter): 30.09 inches Hg (1019.0 mb)
Winds: from the NNE (20 degrees) at 12 MPH (10 knots; 5.1 m/s)
Visibility: 5 miles ( 8 km)
Ceiling: at least 12,000 feet AGL
Clouds: sky clear below 12,000 feet AGL
Weather: no significant weather observed at this time

METAR text: GQNO 192200Z 07007KT 8000 NSC 17/M02 Q1019 NOSIG
Conditions at: GQNO (NOUAKCHOTT/OUMTO, MR) observed 2200 UTC 19 January 2019
Temperature: 17.0°C (63°F)
Dewpoint: -2.0°C (28°F) [RH = 27%]
Pressure (altimeter): 30.09 inches Hg (1019.0 mb)
Winds: from the ENE (70 degrees) at 8 MPH (7 knots; 3.6 m/s)
Visibility: 5 miles ( 8 km)
Ceiling: at least 12,000 feet AGL
Clouds: sky clear below 12,000 feet AGL
Weather: no significant weather observed at this time

METAR text: GQNO 192130Z 06008KT 8000 NSC 18/M02 Q1019 NOSIG
Conditions at: GQNO (NOUAKCHOTT/OUMTO, MR) observed 2130 UTC 19 January 2019
Temperature: 18.0°C (64°F)
Dewpoint: -2.0°C (28°F) [RH = 26%]
Pressure (altimeter): 30.09 inches Hg (1019.0 mb)
Winds: from the ENE (60 degrees) at 9 MPH (8 knots; 4.1 m/s)
Visibility: 5 miles ( 8 km)
Ceiling: at least 12,000 feet AGL
Clouds: sky clear below 12,000 feet AGL
Weather: no significant weather observed at this time

METAR text: GQNO 192100Z 06008KT 8000 NSC 18/M02 Q1018 NOSIG
Conditions at: GQNO (NOUAKCHOTT/OUMTO, MR) observed 2100 UTC 19 January 2019
Temperature: 18.0°C (64°F)
Dewpoint: -2.0°C (28°F) [RH = 26%]
Pressure (altimeter): 30.06 inches Hg (1018.0 mb)
Winds: from the ENE (60 degrees) at 9 MPH (8 knots; 4.1 m/s)
Visibility: 5 miles ( 8 km)
Ceiling: at least 12,000 feet AGL
Clouds: sky clear below 12,000 feet AGL
Weather: no significant weather observed at this time

METAR text: GQNO 192030Z 05008KT 8000 NSC 18/M02 Q1018 NOSIG
Conditions at: GQNO (NOUAKCHOTT/OUMTO, MR) observed 2030 UTC 19 January 2019
Temperature: 18.0°C (64°F)
Dewpoint: -2.0°C (28°F) [RH = 26%]
Pressure (altimeter): 30.06 inches Hg (1018.0 mb)
Winds: from the NE (50 degrees) at 9 MPH (8 knots; 4.1 m/s)
Visibility: 5 miles ( 8 km)
Ceiling: at least 12,000 feet AGL
Clouds: sky clear below 12,000 feet AGL
Weather: no significant weather observed at this time

METAR text: GQNO 192000Z 06006KT 8000 NSC 19/M02 Q1018 NOSIG
Conditions at: GQNO (NOUAKCHOTT/OUMTO, MR) observed 2000 UTC 19 January 2019
Temperature: 19.0°C (66°F)
Dewpoint: -2.0°C (28°F) [RH = 24%]
Pressure (altimeter): 30.06 inches Hg (1018.0 mb)
Winds: from the ENE (60 degrees) at 7 MPH (6 knots; 3.1 m/s)
Visibility: 5 miles ( 8 km)
Ceiling: at least 12,000 feet AGL
Clouds: sky clear below 12,000 feet AGL
Weather: no significant weather observed at this time

METAR text: GQNO 191930Z 05007KT 8000 NSC 21/M02 Q1017 NOSIG
Conditions at: GQNO (NOUAKCHOTT/OUMTO, MR) observed 1930 UTC 19 January 2019
Temperature: 21.0°C (70°F)
Dewpoint: -2.0°C (28°F) [RH = 21%]
Pressure (altimeter): 30.03 inches Hg (1017.0 mb)
Winds: from the NE (50 degrees) at 8 MPH (7 knots; 3.6 m/s)
Visibility: 5 miles ( 8 km)
Ceiling: at least 12,000 feet AGL
Clouds: sky clear below 12,000 feet AGL
Weather: no significant weather observed at this time

METAR text: GQNO 191900Z 06008KT 6000 NSC 23/M02 Q1017 NOSIG
Conditions at: GQNO (NOUAKCHOTT/OUMTO, MR) observed 1900 UTC 19 January 2019
Temperature: 23.0°C (73°F)
Dewpoint: -2.0°C (28°F) [RH = 19%]
Pressure (altimeter): 30.03 inches Hg (1017.0 mb)
Winds: from the ENE (60 degrees) at 9 MPH (8 knots; 4.1 m/s)
Visibility: 4 miles ( 6 km)
Ceiling: at least 12,000 feet AGL
Clouds: sky clear below 12,000 feet AGL
Weather: no significant weather observed at this time

METAR text: GQNO 191830Z 07012KT 6000 NSC 24/00 Q1017 NOSIG
Conditions at: GQNO (NOUAKCHOTT/OUMTO, MR) observed 1830 UTC 19 January 2019
Temperature: 24.0°C (75°F)
Dewpoint: 0.0°C (32°F) [RH = 20%]
Pressure (altimeter): 30.03 inches Hg (1017.0 mb)
Winds: from the ENE (70 degrees) at 14 MPH (12 knots; 6.2 m/s)
Visibility: 4 miles ( 6 km)
Ceiling: at least 12,000 feet AGL
Clouds: sky clear below 12,000 feet AGL
Weather: no significant weather observed at this time

METAR text: GQNO 191800Z 07014KT 6000 NSC 25/M01 Q1017 NOSIG
Conditions at: GQNO (NOUAKCHOTT/OUMTO, MR) observed 1800 UTC 19 January 2019
Temperature: 25.0°C (77°F)
Dewpoint: -1.0°C (30°F) [RH = 18%]
Pressure (altimeter): 30.03 inches Hg (1017.0 mb)
Winds: from the ENE (70 degrees) at 16 MPH (14 knots; 7.2 m/s)
Visibility: 4 miles ( 6 km)
Ceiling: at least 12,000 feet AGL
Clouds: sky clear below 12,000 feet AGL
Weather: no significant weather observed at this time

METAR text: GQNO 191730Z 06016KT 4500 BLDU NSC 25/M01 Q1017 NOSIG
Conditions at: GQNO (NOUAKCHOTT/OUMTO, MR) observed 1730 UTC 19 January 2019
Temperature: 25.0°C (77°F)
Dewpoint: -1.0°C (30°F) [RH = 18%]
Pressure (altimeter): 30.03 inches Hg (1017.0 mb)
Winds: from the ENE (60 degrees) at 18 MPH (16 knots; 8.2 m/s)
Visibility: 2.80 miles (4.51 km)
Ceiling: at least 12,000 feet AGL
Clouds: sky clear below 12,000 feet AGL
Weather: BLDU  (blowing dust)

Forecast for: GQNO (NOUAKCHOTT/OUMTO, MR)
Text: TAF GQNO 202300Z 2100/2206 03010KT 8000 NSC
Forecast period: 0000 UTC 21 January 2019 to 0600 UTC 22 January 2019
Forecast type: FROM: standard forecast or significant change
Winds: from the NNE (30 degrees) at 12 MPH (10 knots; 5.1 m/s)
Visibility: 5 miles (8 km)
Ceiling: unknown
Clouds: missing
Weather: no significant weather forecast for this period